createdAt,value
2023-05-23T00:02:13.294Z,87.51
2023-05-23T00:04:43.147Z,89.10
2023-05-23T00:07:10.577Z,87.48
2023-05-23T00:09:37.817Z,86.92
2023-05-23T00:12:07.635Z,87.72
2023-05-23T00:14:40.291Z,89.13
2023-05-23T00:17:10.740Z,88.17
2023-05-23T00:19:41.628Z,87.81
2023-05-23T00:22:09.613Z,88.11
2023-05-23T00:24:38.825Z,88.65
2023-05-23T00:27:05.965Z,88.62
2023-05-23T00:29:35.243Z,90.62
2023-05-23T00:32:04.652Z,91.87
2023-05-23T00:34:31.697Z,94.39
2023-05-23T00:36:58.764Z,94.08
2023-05-23T00:39:26.997Z,94.76
2023-05-23T00:41:54.081Z,96.15
2023-05-23T00:44:22.072Z,94.85
2023-05-23T00:46:58.958Z,94.58
2023-05-23T00:49:28.617Z,94.78
2023-05-23T00:51:56.011Z,94.85
2023-05-23T00:54:31.274Z,94.74
2023-05-23T00:57:00.926Z,92.69
2023-05-23T00:59:30.483Z,93.63
2023-05-23T01:02:00.346Z,93.44
2023-05-23T01:04:29.590Z,94.05
2023-05-23T01:07:00.812Z,93.61
2023-05-23T01:09:29.271Z,93.75
2023-05-23T01:12:23.829Z,94.09
2023-05-23T01:15:11.058Z,95.11
2023-05-23T01:18:16.619Z,94.41
2023-05-23T01:20:52.878Z,92.71
2023-05-23T01:23:59.452Z,94.04
2023-05-23T01:26:54.292Z,94.05
2023-05-23T01:29:34.790Z,93.77
2023-05-23T01:32:04.805Z,93.87
2023-05-23T01:34:37.482Z,92.65
2023-05-23T01:37:14.820Z,93.19
2023-05-23T01:39:45.408Z,93.87
2023-05-23T01:42:13.483Z,94.38
2023-05-23T01:44:41.042Z,94.76
2023-05-23T01:47:10.042Z,95.37
2023-05-23T01:49:37.933Z,95.35
2023-05-23T01:52:05.902Z,94.95
2023-05-23T01:54:35.665Z,96.28
2023-05-23T01:57:05.887Z,96.16
2023-05-23T01:59:38.566Z,96.98
2023-05-23T02:02:05.961Z,96.37
2023-05-23T02:04:33.208Z,96.61
2023-05-23T02:07:00.310Z,96.91
2023-05-23T02:09:27.246Z,96.32
2023-05-23T02:11:54.347Z,96.95
2023-05-23T02:14:21.837Z,98.44
2023-05-23T02:16:53.998Z,98.35
2023-05-23T02:19:25.673Z,96.97
2023-05-23T02:21:57.455Z,97.18
2023-05-23T02:24:24.462Z,97.33
2023-05-23T02:26:52.602Z,97.79
2023-05-23T02:29:19.813Z,97.58
2023-05-23T02:31:49.271Z,97.69
2023-05-23T02:34:17.611Z,98.28
2023-05-23T02:36:44.654Z,97.65
2023-05-23T02:39:14.376Z,98.38
2023-05-23T02:41:41.619Z,97.94
2023-05-23T02:44:08.691Z,97.86
2023-05-23T02:46:35.776Z,97.04
2023-05-23T02:49:02.885Z,95.64
2023-05-23T02:51:29.819Z,95.67
2023-05-23T02:53:56.785Z,95.04
2023-05-23T02:56:23.795Z,93.92
2023-05-23T02:58:51.103Z,94.74
2023-05-23T03:01:18.847Z,94.28
2023-05-23T03:03:49.577Z,94.51
2023-05-23T03:06:17.165Z,93.57
2023-05-23T03:08:44.820Z,93.29
2023-05-23T03:11:11.866Z,92.91
2023-05-23T03:13:38.993Z,93.06
2023-05-23T03:16:06.454Z,92.83
2023-05-23T03:18:33.610Z,93.39
2023-05-23T03:21:00.624Z,92.64
2023-05-23T03:23:27.613Z,92.05
2023-05-23T03:25:54.603Z,92.51
2023-05-23T03:28:21.711Z,93.04
2023-05-23T03:30:48.726Z,92.51
2023-05-23T03:33:16.027Z,92.85
2023-05-23T03:35:44.702Z,93.38
2023-05-23T03:38:11.730Z,92.23
2023-05-23T03:40:38.797Z,91.33
2023-05-23T03:43:07.436Z,93.18
2023-05-23T03:45:37.941Z,93.15
2023-05-23T03:48:05.153Z,93.50
2023-05-23T03:50:32.290Z,92.67
2023-05-23T03:52:59.483Z,92.69
2023-05-23T03:55:34.571Z,92.33
2023-05-23T03:58:01.819Z,90.85
2023-05-23T04:00:31.138Z,90.78
2023-05-23T04:02:58.569Z,91.41
2023-05-23T04:05:26.430Z,91.01
2023-05-23T04:07:53.779Z,90.41
2023-05-23T04:10:20.863Z,92.14
2023-05-23T04:12:48.243Z,91.68
2023-05-23T04:15:15.506Z,91.30
2023-05-23T04:17:43.944Z,91.00
2023-05-23T04:20:13.597Z,90.91
2023-05-23T04:22:41.342Z,90.63
2023-05-23T04:25:09.556Z,90.26
2023-05-23T04:27:42.186Z,91.16
2023-05-23T04:30:10.183Z,91.13
2023-05-23T04:32:40.938Z,90.00
2023-05-23T04:35:13.611Z,90.46
2023-05-23T04:37:42.608Z,90.12
2023-05-23T04:40:13.588Z,90.67
2023-05-23T04:42:44.697Z,90.53
2023-05-23T04:45:15.377Z,91.27
2023-05-23T04:47:47.789Z,91.67
2023-05-23T04:50:18.466Z,90.40
2023-05-23T04:52:47.858Z,92.11
2023-05-23T04:55:14.936Z,92.32
2023-05-23T04:57:41.847Z,92.66
2023-05-23T05:00:12.849Z,91.83
2023-05-23T05:02:41.852Z,91.48
2023-05-23T05:05:09.549Z,92.16
2023-05-23T05:07:39.289Z,93.25
2023-05-23T05:10:16.949Z,93.35
2023-05-23T05:12:51.059Z,92.73
2023-05-23T05:15:19.545Z,91.93
2023-05-23T05:17:49.733Z,91.05
2023-05-23T05:20:19.536Z,91.07
2023-05-23T05:22:49.727Z,92.62
2023-05-23T05:25:19.088Z,91.41
2023-05-23T05:27:46.168Z,90.22
2023-05-23T05:30:13.915Z,90.80
2023-05-23T05:32:42.221Z,91.73
2023-05-23T05:35:10.137Z,91.51
2023-05-23T05:37:41.792Z,90.56
2023-05-23T05:40:10.017Z,90.51
2023-05-23T05:42:39.283Z,90.75
2023-05-23T05:45:11.512Z,91.37
2023-05-23T05:47:38.885Z,90.65
2023-05-23T05:50:08.823Z,90.35
2023-05-23T05:52:38.838Z,90.30
2023-05-23T05:55:11.502Z,89.99
2023-05-23T05:57:40.041Z,90.24
2023-05-23T06:00:14.804Z,91.44
2023-05-23T06:02:43.211Z,92.37
2023-05-23T06:05:17.019Z,92.24
2023-05-23T06:07:51.749Z,92.87
2023-05-23T06:10:21.383Z,92.98
2023-05-23T06:12:48.681Z,91.02
2023-05-23T06:15:16.217Z,91.08
2023-05-23T06:17:44.888Z,90.52
2023-05-23T06:20:12.459Z,91.27
2023-05-23T06:22:42.127Z,90.79
2023-05-23T06:25:09.441Z,91.08
2023-05-23T06:27:38.743Z,90.50
2023-05-23T06:30:06.773Z,90.46
2023-05-23T06:32:33.852Z,91.85
2023-05-23T06:35:00.801Z,91.14
2023-05-23T06:37:32.205Z,90.98
2023-05-23T06:39:59.244Z,91.07
2023-05-23T06:42:27.174Z,92.59
2023-05-23T06:44:54.178Z,91.37
2023-05-23T06:47:23.700Z,92.80
2023-05-23T06:49:50.778Z,93.70
2023-05-23T06:52:20.425Z,94.64
2023-05-23T06:54:51.148Z,94.45
2023-05-23T06:57:18.274Z,94.47
2023-05-23T06:59:47.585Z,93.84
2023-05-23T07:02:16.898Z,93.43
2023-05-23T07:04:49.575Z,93.01
2023-05-23T07:07:16.557Z,92.27
2023-05-23T07:09:43.607Z,92.60
2023-05-23T07:12:10.599Z,91.94
2023-05-23T07:14:40.606Z,90.99
2023-05-23T07:17:07.767Z,91.70
2023-05-23T07:19:37.004Z,91.25
2023-05-23T07:22:08.906Z,90.28
2023-05-23T07:24:37.232Z,90.34
2023-05-23T07:27:04.518Z,90.66
2023-05-23T07:29:33.644Z,90.10
2023-05-23T07:32:03.257Z,90.98
2023-05-23T07:34:30.764Z,91.09
2023-05-23T07:36:57.899Z,90.70
2023-05-23T07:39:25.786Z,90.22
2023-05-23T07:41:52.708Z,89.71
2023-05-23T07:44:24.858Z,91.04
2023-05-23T07:46:52.520Z,91.01
2023-05-23T07:49:21.768Z,90.56
2023-05-23T07:51:51.335Z,91.37
2023-05-23T07:54:18.354Z,91.99
2023-05-23T07:56:50.021Z,92.23
2023-05-23T07:59:19.555Z,91.80
2023-05-23T08:01:50.709Z,91.48
2023-05-23T08:04:18.646Z,91.42
2023-05-23T08:07:00.652Z,91.30
2023-05-23T08:09:31.645Z,92.23
2023-05-23T08:11:58.684Z,92.37
2023-05-23T08:14:38.771Z,92.86
2023-05-23T08:17:16.535Z,91.70
2023-05-23T08:19:46.185Z,91.67
2023-05-23T08:22:15.502Z,92.16
2023-05-23T08:24:42.524Z,92.18
2023-05-23T08:27:09.748Z,92.02
2023-05-23T08:29:37.322Z,92.75
2023-05-23T08:32:06.927Z,93.17
2023-05-23T08:34:38.541Z,93.58
2023-05-23T08:37:07.892Z,93.50
2023-05-23T08:39:42.084Z,93.12
2023-05-23T08:42:09.166Z,92.32
2023-05-23T08:44:38.726Z,92.72
2023-05-23T08:47:05.926Z,91.16
2023-05-23T08:49:35.810Z,91.08
2023-05-23T08:52:10.877Z,90.41
2023-05-23T08:54:42.161Z,89.11
2023-05-23T08:57:09.185Z,88.76
2023-05-23T08:59:38.850Z,87.47
2023-05-23T09:02:13.797Z,85.50
2023-05-23T09:04:43.153Z,84.62
2023-05-23T09:07:12.044Z,84.74
2023-05-23T09:09:39.492Z,83.86
2023-05-23T09:12:06.892Z,82.18
2023-05-23T09:14:34.033Z,83.41
2023-05-23T09:17:04.620Z,83.66
2023-05-23T09:19:32.254Z,83.43
2023-05-23T09:22:05.625Z,83.01
2023-05-23T09:24:38.905Z,82.57
2023-05-23T09:27:07.425Z,81.78
2023-05-23T09:29:41.596Z,81.32
2023-05-23T09:32:20.021Z,82.44
2023-05-23T09:35:05.751Z,79.45
2023-05-23T09:37:40.865Z,80.17
2023-05-23T09:40:14.486Z,80.39
2023-05-23T09:42:46.345Z,80.67
2023-05-23T09:45:15.489Z,81.21
2023-05-23T09:47:52.988Z,80.76
2023-05-23T09:50:23.645Z,80.05
2023-05-23T09:52:54.348Z,79.64
2023-05-23T09:55:25.972Z,79.92
2023-05-23T09:57:58.963Z,79.99
2023-05-23T10:00:27.271Z,80.74
2023-05-23T10:03:10.707Z,81.32
2023-05-23T10:05:52.844Z,82.42
2023-05-23T10:08:40.404Z,84.32
2023-05-23T10:11:35.637Z,85.79
2023-05-23T10:14:10.863Z,86.46
2023-05-23T10:17:07.010Z,87.84
2023-05-23T10:19:52.256Z,88.31
2023-05-23T10:22:20.068Z,90.52
2023-05-23T10:24:48.924Z,91.69
2023-05-23T10:27:16.132Z,92.13
2023-05-23T10:29:46.842Z,91.84
2023-05-23T10:32:15.110Z,93.00
2023-05-23T10:35:04.567Z,94.06
2023-05-23T10:38:00.081Z,93.95
2023-05-23T10:40:26.980Z,95.62
2023-05-23T10:43:08.173Z,96.99
2023-05-23T10:45:44.481Z,96.63
2023-05-23T10:48:36.407Z,97.28
2023-05-23T10:51:06.892Z,96.92
2023-05-23T10:53:40.059Z,95.94
2023-05-23T10:56:19.622Z,96.09
2023-05-23T10:58:46.710Z,94.11
2023-05-23T11:01:20.069Z,93.73
2023-05-23T11:03:48.186Z,93.56
2023-05-23T11:06:38.486Z,93.87
2023-05-23T11:09:27.788Z,95.01
2023-05-23T11:12:05.827Z,93.35
2023-05-23T11:14:33.792Z,93.16
2023-05-23T11:17:22.025Z,93.87
2023-05-23T11:20:13.420Z,92.85
2023-05-23T11:22:42.324Z,92.16
2023-05-23T11:25:10.392Z,92.81
2023-05-23T11:27:41.897Z,92.55
2023-05-23T11:30:15.899Z,90.54
2023-05-23T11:32:53.979Z,90.64
2023-05-23T11:35:23.860Z,91.29
2023-05-23T11:37:50.992Z,89.59
2023-05-23T11:40:28.228Z,88.93
2023-05-23T11:43:08.279Z,89.61
2023-05-23T11:45:37.858Z,87.81
2023-05-23T11:48:18.103Z,85.59
2023-05-23T11:50:49.372Z,85.26
2023-05-23T11:53:19.144Z,84.66
2023-05-23T11:56:00.818Z,83.63
2023-05-23T11:58:33.702Z,84.13
2023-05-23T12:01:09.726Z,83.04
2023-05-23T12:03:52.465Z,81.49
2023-05-23T12:06:20.144Z,80.86
2023-05-23T12:08:52.380Z,77.86
2023-05-23T12:11:19.399Z,78.40
2023-05-23T12:13:46.533Z,75.51
2023-05-23T12:16:16.710Z,74.18
2023-05-23T12:18:46.440Z,71.67
2023-05-23T12:21:13.454Z,71.78
2023-05-23T12:23:42.112Z,70.66
2023-05-23T12:26:10.324Z,67.38
2023-05-23T12:28:45.809Z,64.86
2023-05-23T12:31:21.410Z,62.81
2023-05-23T12:33:49.609Z,60.34
2023-05-23T12:36:24.364Z,59.71
2023-05-23T12:38:54.061Z,59.58
2023-05-23T12:41:22.178Z,58.58
2023-05-23T12:43:56.989Z,57.36
2023-05-23T12:46:29.442Z,54.94
2023-05-23T12:49:01.335Z,56.71
2023-05-23T12:51:30.960Z,56.57
2023-05-23T12:54:00.485Z,55.68
2023-05-23T12:58:57.093Z,55.49
2023-05-23T13:01:24.509Z,54.64
2023-05-23T13:03:57.047Z,54.78
2023-05-23T13:06:26.644Z,55.36
2023-05-23T13:08:56.280Z,52.72
2023-05-23T13:11:23.310Z,52.30
2023-05-23T13:13:54.071Z,52.29
2023-05-23T13:16:21.250Z,52.02
2023-05-23T13:18:48.503Z,52.35
2023-05-23T13:21:18.296Z,51.89
2023-05-23T13:23:48.436Z,51.06
2023-05-23T13:26:15.655Z,51.03
2023-05-23T13:28:42.783Z,49.63
2023-05-23T13:31:09.984Z,49.46
2023-05-23T13:33:38.176Z,48.28
2023-05-23T13:36:05.678Z,47.44
2023-05-23T13:38:32.633Z,46.80
2023-05-23T13:40:59.776Z,47.67
2023-05-23T13:43:31.425Z,48.06
2023-05-23T13:46:02.813Z,46.93
2023-05-23T13:48:32.470Z,47.88
2023-05-23T13:50:59.621Z,47.95
2023-05-23T13:53:27.509Z,49.03
2023-05-23T13:55:54.895Z,49.48
2023-05-23T13:58:21.909Z,48.96
2023-05-23T14:00:48.942Z,48.90
2023-05-23T14:03:20.208Z,49.52
2023-05-23T14:05:49.672Z,48.66
2023-05-23T14:08:16.850Z,48.64
2023-05-23T14:10:44.100Z,48.98
2023-05-23T14:13:12.012Z,49.97
2023-05-23T14:15:42.651Z,49.03
2023-05-23T14:18:12.736Z,49.33
2023-05-23T14:20:39.909Z,49.30
2023-05-23T14:23:07.047Z,48.96
2023-05-23T14:25:34.119Z,48.34
2023-05-23T14:28:01.321Z,49.05
2023-05-23T14:30:28.338Z,49.54
2023-05-23T14:32:57.890Z,49.54
2023-05-23T14:35:26.290Z,48.23
2023-05-23T14:37:55.686Z,48.69
2023-05-23T14:40:24.934Z,47.86
2023-05-23T14:42:52.341Z,47.19
2023-05-23T14:45:22.434Z,47.24
2023-05-23T14:47:56.668Z,47.97
2023-05-23T14:50:23.659Z,48.01
2023-05-23T14:52:50.687Z,48.04
2023-05-23T14:55:17.771Z,48.00
2023-05-23T14:57:44.744Z,47.91
2023-05-23T15:00:13.337Z,48.02
2023-05-23T15:02:40.497Z,48.55
2023-05-23T15:05:08.716Z,48.80
2023-05-23T15:07:36.044Z,48.95
2023-05-23T15:10:04.122Z,48.61
2023-05-23T15:12:31.183Z,48.44
2023-05-23T15:15:03.540Z,48.71
2023-05-23T15:17:35.441Z,49.01
2023-05-23T15:20:04.438Z,49.15
2023-05-23T15:22:39.400Z,49.19
2023-05-23T15:25:08.384Z,48.81
2023-05-23T15:27:38.633Z,48.62
2023-05-23T15:30:06.730Z,49.77
2023-05-23T15:32:34.052Z,50.66
2023-05-23T15:35:01.095Z,50.07
2023-05-23T15:37:28.095Z,51.05
2023-05-23T15:39:57.065Z,51.52
2023-05-23T15:42:24.154Z,52.04
2023-05-23T15:44:51.241Z,52.65
2023-05-23T15:47:18.875Z,51.93
2023-05-23T15:49:45.953Z,51.97
2023-05-23T15:52:13.308Z,52.12
2023-05-23T15:54:40.563Z,51.08
2023-05-23T15:57:11.082Z,49.29
2023-05-23T15:59:41.566Z,49.14
2023-05-23T16:02:11.462Z,49.26
2023-05-23T16:04:44.058Z,49.98
2023-05-23T16:07:12.309Z,51.42
2023-05-23T16:10:00.871Z,51.70
2023-05-23T16:12:33.673Z,51.39
2023-05-23T16:15:13.880Z,50.47
2023-05-23T16:18:52.754Z,52.38
2023-05-23T16:21:24.791Z,52.22
2023-05-23T16:23:51.796Z,51.62
2023-05-23T16:26:19.321Z,51.44
2023-05-23T16:28:46.485Z,50.37
2023-05-23T16:31:21.604Z,50.47
2023-05-23T16:33:51.114Z,50.18
2023-05-23T16:36:22.031Z,51.07
2023-05-23T16:38:55.567Z,51.79
2023-05-23T16:41:23.094Z,53.14
2023-05-23T16:43:57.249Z,52.99
2023-05-23T16:46:24.424Z,52.26
2023-05-23T16:48:54.523Z,52.01
2023-05-23T16:51:21.790Z,51.92
2023-05-23T16:53:51.190Z,51.11
2023-05-23T16:56:18.266Z,51.16
2023-05-23T16:58:49.893Z,50.16
2023-05-23T17:01:19.954Z,51.41
2023-05-23T17:03:50.396Z,51.20
2023-05-23T17:06:24.163Z,52.45
2023-05-23T17:08:54.490Z,52.43
2023-05-23T17:11:21.886Z,52.90
2023-05-23T17:13:53.513Z,53.26
2023-05-23T17:16:20.917Z,53.07
2023-05-23T17:18:48.564Z,54.28
2023-05-23T17:21:15.795Z,54.20
2023-05-23T17:23:45.149Z,54.07
2023-05-23T17:26:12.229Z,54.72
2023-05-23T17:28:39.552Z,54.71
2023-05-23T17:31:08.943Z,55.31
2023-05-23T17:33:38.909Z,54.89
2023-05-23T17:36:11.470Z,54.24
2023-05-23T17:38:39.345Z,54.05
2023-05-23T17:41:09.283Z,54.68
2023-05-23T17:43:39.177Z,54.89
2023-05-23T17:46:08.572Z,55.08
2023-05-23T17:48:47.068Z,54.91
2023-05-23T17:51:15.967Z,55.78
2023-05-23T17:53:43.319Z,55.25
2023-05-23T17:56:10.919Z,54.36
2023-05-23T17:58:43.232Z,53.96
2023-05-23T18:01:14.510Z,53.94
2023-05-23T18:03:44.371Z,54.61
2023-05-23T18:06:11.685Z,54.99
2023-05-23T18:08:38.601Z,54.80
2023-05-23T18:11:08.924Z,54.94
2023-05-23T18:13:38.557Z,54.28
2023-05-23T18:16:07.986Z,54.91
2023-05-23T18:18:37.846Z,55.17
2023-05-23T18:21:08.645Z,55.25
2023-05-23T18:23:37.876Z,55.83
2023-05-23T18:26:05.036Z,56.24
2023-05-23T18:28:38.693Z,57.43
2023-05-23T18:31:05.734Z,56.71
2023-05-23T18:33:34.535Z,56.79
2023-05-23T18:36:04.303Z,57.86
2023-05-23T18:38:34.496Z,58.43
2023-05-23T18:41:01.666Z,57.97
2023-05-23T18:43:30.521Z,57.86
2023-05-23T18:45:58.172Z,56.91
2023-05-23T18:48:26.076Z,57.88
2023-05-23T18:50:53.909Z,58.03
2023-05-23T18:53:21.213Z,58.39
2023-05-23T18:55:48.217Z,58.20
2023-05-23T18:58:15.978Z,58.17
2023-05-23T19:00:44.905Z,58.05
2023-05-23T19:03:13.130Z,57.94
2023-05-23T19:05:42.973Z,58.26
2023-05-23T19:08:13.049Z,58.94
2023-05-23T19:10:42.321Z,59.91
2023-05-23T19:13:11.091Z,59.30
2023-05-23T19:15:38.718Z,59.76
2023-05-23T19:18:05.833Z,59.25
2023-05-23T19:20:33.281Z,60.16
2023-05-23T19:23:01.255Z,60.42
2023-05-23T19:25:28.472Z,60.01
2023-05-23T19:27:55.777Z,60.24
2023-05-23T19:30:25.382Z,60.11
2023-05-23T19:33:01.244Z,60.57
2023-05-23T19:35:31.439Z,60.47
2023-05-23T19:38:01.478Z,60.70
2023-05-23T19:40:28.685Z,60.02
2023-05-23T19:43:00.351Z,60.20
2023-05-23T19:45:28.662Z,60.60
2023-05-23T19:47:57.608Z,59.54
2023-05-23T19:50:26.854Z,59.64
2023-05-23T19:52:53.923Z,60.04
2023-05-23T19:55:23.329Z,60.24
2023-05-23T19:57:50.652Z,60.32
2023-05-23T20:00:18.352Z,60.37
2023-05-23T20:02:48.332Z,60.10
2023-05-23T20:05:18.831Z,60.70
2023-05-23T20:07:48.289Z,60.86
2023-05-23T20:10:18.254Z,60.80
2023-05-23T20:12:45.360Z,60.84
2023-05-23T20:15:12.359Z,61.25
2023-05-23T20:17:39.414Z,60.95
2023-05-23T20:20:07.641Z,60.59
2023-05-23T20:22:34.766Z,60.63
2023-05-23T20:25:07.807Z,60.00
2023-05-23T20:27:34.789Z,60.15
2023-05-23T20:30:01.943Z,60.56
2023-05-23T20:32:28.911Z,61.10
2023-05-23T20:35:01.050Z,60.87
2023-05-23T20:37:30.693Z,60.96
2023-05-23T20:39:58.082Z,61.10
2023-05-23T20:42:26.705Z,61.54
2023-05-23T20:44:56.936Z,61.46
2023-05-23T20:47:26.260Z,61.15
2023-05-23T20:49:56.183Z,62.37
2023-05-23T20:52:26.239Z,62.63
2023-05-23T20:54:55.846Z,62.41
2023-05-23T20:57:25.550Z,63.09
2023-05-23T20:59:59.771Z,61.94
2023-05-23T21:02:27.116Z,62.76
2023-05-23T21:04:56.605Z,62.13
2023-05-23T21:07:23.603Z,62.27
2023-05-23T21:09:52.993Z,62.85
2023-05-23T21:12:22.352Z,62.55
2023-05-23T21:14:54.130Z,62.33
2023-05-23T21:17:23.962Z,62.59
2023-05-23T21:19:51.369Z,62.64
2023-05-23T21:22:20.772Z,61.92
2023-05-23T21:24:52.653Z,61.85
2023-05-23T21:27:21.933Z,62.27
2023-05-23T21:29:48.884Z,62.10
2023-05-23T21:32:18.393Z,62.27
2023-05-23T21:34:49.953Z,62.32
2023-05-23T21:37:17.048Z,62.31
2023-05-23T21:39:52.096Z,62.43
2023-05-23T21:42:24.704Z,62.12
2023-05-23T21:44:51.779Z,62.06
2023-05-23T21:47:21.160Z,61.98
2023-05-23T21:49:48.158Z,62.11
2023-05-23T21:52:19.621Z,61.69
2023-05-23T21:54:51.744Z,61.82
2023-05-23T21:57:21.069Z,62.60
2023-05-23T21:59:50.649Z,63.17
2023-05-23T22:02:17.807Z,62.71
2023-05-23T22:04:46.133Z,63.22
2023-05-23T22:07:13.192Z,62.66
2023-05-23T22:09:44.622Z,62.78
2023-05-23T22:12:14.476Z,62.86
2023-05-23T22:14:41.548Z,63.46
2023-05-23T22:17:14.239Z,63.06
2023-05-23T22:19:41.894Z,63.91
2023-05-23T22:22:09.908Z,63.64
2023-05-23T22:24:36.901Z,64.41
2023-05-23T22:27:04.209Z,64.31
2023-05-23T22:29:31.303Z,63.93
2023-05-23T22:32:00.847Z,65.39
2023-05-23T22:34:30.410Z,66.01
2023-05-23T22:36:59.830Z,65.29
2023-05-23T22:39:27.609Z,65.67
2023-05-23T22:42:01.989Z,66.27
2023-05-23T22:44:34.045Z,65.92
2023-05-23T22:47:03.696Z,65.53
2023-05-23T22:49:32.997Z,66.47
2023-05-23T22:52:04.924Z,66.27
2023-05-23T22:54:34.089Z,66.13
2023-05-23T22:57:01.238Z,67.11
2023-05-23T22:59:30.004Z,68.31
2023-05-23T23:01:59.142Z,68.94
2023-05-23T23:04:30.781Z,68.62
2023-05-23T23:07:02.660Z,68.76
2023-05-23T23:09:29.677Z,69.18
2023-05-23T23:11:56.739Z,69.52
2023-05-23T23:14:26.742Z,70.13
2023-05-23T23:16:54.472Z,70.47
2023-05-23T23:19:22.064Z,69.30
2023-05-23T23:21:54.186Z,69.80
2023-05-23T23:24:24.104Z,69.30
2023-05-23T23:26:51.111Z,69.07
2023-05-23T23:29:20.326Z,69.65
2023-05-23T23:31:52.855Z,70.29
2023-05-23T23:34:19.848Z,70.56
2023-05-23T23:36:46.779Z,71.14
2023-05-23T23:39:13.796Z,71.87
2023-05-23T23:41:43.351Z,71.64
2023-05-23T23:44:13.005Z,71.88
2023-05-23T23:46:40.109Z,72.18
2023-05-23T23:49:09.212Z,72.73
2023-05-23T23:51:38.446Z,72.88
2023-05-23T23:54:05.536Z,72.84
2023-05-23T23:56:36.516Z,73.07
2023-05-23T23:59:06.122Z,73.12
